createdAt,value
2023-05-22T00:00:06.171Z,675.00
2023-05-22T00:01:05.180Z,676.00
2023-05-22T00:02:05.452Z,674.00
2023-05-22T00:03:05.212Z,673.00
2023-05-22T00:04:06.439Z,672.00
2023-05-22T00:05:05.289Z,672.00
2023-05-22T00:06:06.356Z,672.00
2023-05-22T00:07:05.253Z,673.00
2023-05-22T00:08:05.265Z,676.00
2023-05-22T00:09:06.371Z,677.00
2023-05-22T00:10:06.326Z,677.00
2023-05-22T00:11:05.338Z,678.00
2023-05-22T00:12:05.621Z,678.00
2023-05-22T00:13:05.520Z,677.00
2023-05-22T00:14:05.403Z,676.00
2023-05-22T00:15:05.374Z,675.00
2023-05-22T00:16:05.644Z,677.00
2023-05-22T00:17:05.660Z,678.00
2023-05-22T00:18:06.540Z,680.00
2023-05-22T00:19:06.711Z,681.00
2023-05-22T00:20:06.690Z,682.00
2023-05-22T00:21:06.449Z,682.00
2023-05-22T00:22:06.588Z,680.00
2023-05-22T00:23:06.723Z,681.00
2023-05-22T00:24:06.643Z,678.00
2023-05-22T00:25:05.540Z,678.00
2023-05-22T00:26:06.780Z,678.00
2023-05-22T00:27:05.645Z,677.00
2023-05-22T00:28:06.623Z,676.00
2023-05-22T00:29:06.574Z,678.00
2023-05-22T00:30:06.655Z,677.00
2023-05-22T00:31:06.589Z,679.00
2023-05-22T00:32:05.885Z,680.00
2023-05-22T00:33:05.669Z,679.00
2023-05-22T00:34:06.812Z,678.00
2023-05-22T00:35:06.916Z,676.00
2023-05-22T00:36:05.924Z,678.00
2023-05-22T00:37:06.949Z,680.00
2023-05-22T00:38:06.699Z,679.00
2023-05-22T00:39:07.028Z,680.00
2023-05-22T00:40:05.992Z,679.00
2023-05-22T00:41:06.080Z,679.00
2023-05-22T00:42:06.782Z,681.00
2023-05-22T00:43:06.860Z,682.00
2023-05-22T00:44:05.857Z,682.00
2023-05-22T00:45:05.858Z,681.00
2023-05-22T00:46:05.988Z,678.00
2023-05-22T00:47:05.878Z,678.00
2023-05-22T00:48:06.182Z,679.00
2023-05-22T00:49:07.100Z,681.00
2023-05-22T00:50:06.081Z,681.00
2023-05-22T00:51:06.968Z,681.00
2023-05-22T00:52:06.994Z,682.00
2023-05-22T00:53:06.008Z,683.00
2023-05-22T00:54:07.035Z,683.00
2023-05-22T00:55:07.185Z,684.00
2023-05-22T00:56:07.290Z,680.00
2023-05-22T00:57:06.298Z,681.00
2023-05-22T00:58:07.264Z,682.00
2023-05-22T00:59:07.209Z,681.00
2023-05-22T01:00:06.654Z,682.00
2023-05-22T01:01:06.194Z,681.00
2023-05-22T01:02:06.361Z,678.00
2023-05-22T01:03:07.340Z,680.00
2023-05-22T01:04:06.281Z,677.00
2023-05-22T01:05:07.318Z,678.00
2023-05-22T01:06:07.333Z,680.00
2023-05-22T01:07:06.386Z,683.00
2023-05-22T01:08:07.353Z,683.00
2023-05-22T01:09:06.524Z,686.00
2023-05-22T01:10:07.440Z,686.00
2023-05-22T01:11:06.501Z,683.00
2023-05-22T01:12:07.634Z,684.00
2023-05-22T01:13:07.615Z,681.00
2023-05-22T01:14:07.629Z,681.00
2023-05-22T01:15:06.599Z,678.00
2023-05-22T01:16:06.634Z,680.00
2023-05-22T01:17:07.672Z,681.00
2023-05-22T01:18:06.930Z,680.00
2023-05-22T01:19:07.975Z,681.00
2023-05-22T01:20:06.976Z,684.00
2023-05-22T01:21:07.876Z,683.00
2023-05-22T01:22:07.839Z,684.00
2023-05-22T01:23:07.967Z,684.00
2023-05-22T01:24:06.951Z,684.00
2023-05-22T01:25:06.798Z,684.00
2023-05-22T01:26:06.976Z,682.00
2023-05-22T01:27:06.865Z,683.00
2023-05-22T01:28:06.972Z,685.00
2023-05-22T01:29:07.208Z,687.00
2023-05-22T01:30:07.941Z,687.00
2023-05-22T01:31:07.167Z,685.00
2023-05-22T01:32:07.253Z,686.00
2023-05-22T01:33:08.337Z,686.00
2023-05-22T01:34:08.397Z,684.00
2023-05-22T01:35:08.184Z,685.00
2023-05-22T01:36:07.351Z,685.00
2023-05-22T01:37:08.223Z,684.00
2023-05-22T01:38:08.344Z,684.00
2023-05-22T01:39:08.185Z,684.00
2023-05-22T01:40:07.341Z,682.00
2023-05-22T01:41:07.331Z,681.00
2023-05-22T01:42:07.509Z,682.00
2023-05-22T01:43:07.280Z,684.00
2023-05-22T01:44:08.325Z,683.00
2023-05-22T01:45:07.324Z,683.00
2023-05-22T01:46:07.465Z,680.00
2023-05-22T01:47:08.505Z,681.00
2023-05-22T01:48:08.599Z,681.00
2023-05-22T01:49:07.531Z,679.00
2023-05-22T01:50:08.488Z,680.00
2023-05-22T01:51:08.678Z,681.00
2023-05-22T01:52:08.828Z,682.00
2023-05-22T01:53:07.569Z,682.00
2023-05-22T01:54:07.657Z,682.00
2023-05-22T01:55:07.623Z,680.00
2023-05-22T01:56:07.680Z,681.00
2023-05-22T01:57:08.912Z,680.00
2023-05-22T01:58:07.723Z,682.00
2023-05-22T01:59:07.710Z,684.00
2023-05-22T02:00:07.959Z,681.00
2023-05-22T02:01:08.020Z,680.00
2023-05-22T02:02:08.811Z,683.00
2023-05-22T02:03:08.065Z,685.00
2023-05-22T02:04:08.869Z,684.00
2023-05-22T02:05:07.853Z,687.00
2023-05-22T02:06:08.868Z,688.00
2023-05-22T02:07:10.750Z,687.00
2023-05-22T02:08:07.871Z,686.00
2023-05-22T02:09:07.877Z,687.00
2023-05-22T02:10:08.868Z,688.00
2023-05-22T02:11:08.853Z,689.00
2023-05-22T02:12:07.835Z,688.00
2023-05-22T02:13:07.831Z,686.00
2023-05-22T02:14:08.835Z,687.00
2023-05-22T02:15:07.824Z,688.00
2023-05-22T02:16:08.883Z,689.00
2023-05-22T02:17:08.832Z,689.00
2023-05-22T02:18:08.872Z,690.00
2023-05-22T02:19:07.979Z,691.00
2023-05-22T02:20:07.811Z,691.00
2023-05-22T02:21:07.783Z,691.00
2023-05-22T02:22:08.777Z,691.00
2023-05-22T02:23:08.767Z,692.00
2023-05-22T02:24:08.762Z,692.00
2023-05-22T02:25:08.762Z,692.00
2023-05-22T02:26:08.778Z,694.00
2023-05-22T02:27:07.750Z,692.00
2023-05-22T02:28:07.735Z,693.00
2023-05-22T02:29:08.730Z,694.00
2023-05-22T02:30:07.725Z,692.00
2023-05-22T02:31:08.739Z,691.00
2023-05-22T02:32:07.725Z,687.00
2023-05-22T02:33:08.743Z,689.00
2023-05-22T02:34:08.699Z,689.00
2023-05-22T02:35:08.721Z,689.00
2023-05-22T02:36:08.709Z,690.00
2023-05-22T02:37:08.692Z,686.00
2023-05-22T02:38:08.682Z,683.00
2023-05-22T02:39:07.659Z,683.00
2023-05-22T02:40:07.672Z,680.00
2023-05-22T02:41:07.647Z,679.00
2023-05-22T02:42:07.664Z,678.00
2023-05-22T02:43:07.660Z,679.00
2023-05-22T02:44:08.641Z,681.00
2023-05-22T02:45:07.672Z,680.00
2023-05-22T02:46:08.670Z,683.00
2023-05-22T02:47:08.678Z,684.00
2023-05-22T02:48:07.787Z,689.00
2023-05-22T02:49:08.739Z,688.00
2023-05-22T02:50:08.776Z,688.00
2023-05-22T02:51:08.803Z,689.00
2023-05-22T02:52:08.860Z,688.00
2023-05-22T02:53:08.867Z,690.00
2023-05-22T02:54:08.897Z,690.00
2023-05-22T02:55:08.960Z,690.00
2023-05-22T02:56:08.976Z,689.00
2023-05-22T02:57:08.005Z,690.00
2023-05-22T02:58:08.033Z,690.00
2023-05-22T02:59:09.073Z,690.00
2023-05-22T03:00:09.101Z,693.00
2023-05-22T03:01:09.204Z,693.00
2023-05-22T03:02:08.237Z,693.00
2023-05-22T03:03:09.261Z,693.00
2023-05-22T03:04:09.397Z,694.00
2023-05-22T03:05:09.273Z,693.00
2023-05-22T03:06:08.319Z,690.00
2023-05-22T03:07:09.368Z,690.00
2023-05-22T03:08:09.389Z,688.00
2023-05-22T03:09:09.390Z,688.00
2023-05-22T03:10:08.430Z,687.00
2023-05-22T03:11:08.505Z,685.00
2023-05-22T03:12:08.507Z,684.00
2023-05-22T03:13:08.536Z,684.00
2023-05-22T03:14:08.568Z,685.00
2023-05-22T03:15:09.635Z,685.00
2023-05-22T03:16:09.664Z,688.00
2023-05-22T03:17:08.667Z,689.00
2023-05-22T03:18:09.745Z,690.00
2023-05-22T03:19:08.837Z,687.00
2023-05-22T03:20:08.981Z,689.00
2023-05-22T03:21:09.801Z,690.00
2023-05-22T03:22:09.827Z,689.00
2023-05-22T03:23:08.851Z,690.00
2023-05-22T03:24:09.021Z,692.00
2023-05-22T03:25:09.935Z,693.00
2023-05-22T03:26:10.001Z,691.00
2023-05-22T03:27:08.996Z,689.00
2023-05-22T03:28:09.029Z,691.00
2023-05-22T03:29:10.183Z,692.00
2023-05-22T03:30:10.144Z,693.00
2023-05-22T03:31:09.128Z,695.00
2023-05-22T03:32:09.166Z,695.00
2023-05-22T03:33:10.478Z,694.00
2023-05-22T03:34:10.290Z,695.00
2023-05-22T03:35:09.285Z,696.00
2023-05-22T03:36:10.314Z,699.00
2023-05-22T03:37:10.350Z,699.00
2023-05-22T03:38:10.389Z,701.00
2023-05-22T03:39:10.435Z,698.00
2023-05-22T03:40:09.464Z,697.00
2023-05-22T03:41:10.492Z,698.00
2023-05-22T03:42:10.521Z,697.00
2023-05-22T03:43:10.548Z,698.00
2023-05-22T03:44:09.589Z,700.00
2023-05-22T03:45:10.637Z,699.00
2023-05-22T03:46:09.678Z,696.00
2023-05-22T03:47:09.710Z,697.00
2023-05-22T03:48:10.933Z,697.00
2023-05-22T03:49:09.762Z,698.00
2023-05-22T03:50:10.816Z,697.00
2023-05-22T03:51:10.871Z,697.00
2023-05-22T03:52:10.897Z,696.00
2023-05-22T03:53:09.904Z,696.00
2023-05-22T03:54:10.943Z,694.00
2023-05-22T03:55:10.009Z,696.00
2023-05-22T03:56:10.034Z,694.00
2023-05-22T03:57:10.049Z,693.00
2023-05-22T03:58:11.087Z,692.00
2023-05-22T03:59:11.142Z,691.00
2023-05-22T04:00:11.183Z,687.00
2023-05-22T04:01:10.255Z,687.00
2023-05-22T04:02:10.300Z,689.00
2023-05-22T04:03:11.363Z,692.00
2023-05-22T04:04:11.306Z,695.00
2023-05-22T04:05:10.411Z,695.00
2023-05-22T04:06:11.411Z,695.00
2023-05-22T04:07:10.414Z,695.00
2023-05-22T04:08:11.460Z,694.00
2023-05-22T04:09:10.492Z,693.00
2023-05-22T04:10:11.537Z,693.00
2023-05-22T04:11:11.699Z,693.00
2023-05-22T04:12:11.616Z,692.00
2023-05-22T04:13:11.644Z,691.00
2023-05-22T04:14:11.689Z,692.00
2023-05-22T04:15:11.720Z,691.00
2023-05-22T04:16:10.814Z,691.00
2023-05-22T04:17:10.779Z,694.00
2023-05-22T04:18:11.882Z,694.00
2023-05-22T04:19:10.888Z,691.00
2023-05-22T04:20:11.907Z,693.00
2023-05-22T04:21:11.948Z,694.00
2023-05-22T04:22:10.988Z,694.00
2023-05-22T04:23:11.004Z,694.00
2023-05-22T04:24:12.063Z,696.00
2023-05-22T04:25:12.076Z,696.00
2023-05-22T04:26:12.126Z,696.00
2023-05-22T04:27:11.243Z,693.00
2023-05-22T04:28:11.185Z,694.00
2023-05-22T04:29:12.233Z,694.00
2023-05-22T04:30:11.271Z,696.00
2023-05-22T04:31:12.338Z,700.00
2023-05-22T04:32:12.338Z,700.00
2023-05-22T04:33:11.443Z,699.00
2023-05-22T04:34:12.410Z,700.00
2023-05-22T04:35:11.451Z,698.00
2023-05-22T04:36:12.742Z,697.00
2023-05-22T04:37:11.521Z,697.00
2023-05-22T04:38:12.553Z,700.00
2023-05-22T04:39:12.588Z,700.00
2023-05-22T04:40:11.664Z,696.00
2023-05-22T04:41:11.658Z,697.00
2023-05-22T04:42:12.711Z,698.00
2023-05-22T04:43:11.857Z,695.00
2023-05-22T04:44:12.783Z,697.00
2023-05-22T04:45:12.825Z,696.00
2023-05-22T04:46:11.865Z,696.00
2023-05-22T04:47:12.960Z,692.00
2023-05-22T04:48:12.936Z,689.00
2023-05-22T04:49:12.999Z,689.00
2023-05-22T04:50:13.024Z,690.00
2023-05-22T04:51:12.072Z,690.00
2023-05-22T04:52:12.099Z,691.00
2023-05-22T04:53:13.136Z,693.00
2023-05-22T04:54:12.191Z,693.00
2023-05-22T04:55:12.237Z,695.00
2023-05-22T04:56:16.577Z,699.00
2023-05-22T04:57:13.246Z,699.00
2023-05-22T04:58:13.242Z,698.00
2023-05-22T04:59:12.256Z,697.00
2023-05-22T05:00:12.220Z,697.00
2023-05-22T05:01:12.247Z,697.00
2023-05-22T05:02:13.196Z,698.00
2023-05-22T05:03:12.287Z,696.00
2023-05-22T05:04:13.255Z,696.00
2023-05-22T05:05:13.208Z,693.00
2023-05-22T05:06:13.227Z,695.00
2023-05-22T05:07:12.231Z,698.00
2023-05-22T05:08:12.150Z,700.00
2023-05-22T05:09:13.154Z,701.00
2023-05-22T05:10:12.163Z,703.00
2023-05-22T05:11:13.183Z,704.00
2023-05-22T05:12:13.179Z,706.00
2023-05-22T05:13:12.156Z,708.00
2023-05-22T05:14:13.110Z,708.00
2023-05-22T05:15:12.141Z,710.00
2023-05-22T05:16:12.213Z,707.00
2023-05-22T05:17:13.103Z,705.00
2023-05-22T05:18:13.189Z,703.00
2023-05-22T05:19:13.173Z,702.00
2023-05-22T05:20:13.105Z,704.00
2023-05-22T05:21:13.092Z,704.00
2023-05-22T05:22:13.102Z,702.00
2023-05-22T05:23:13.056Z,702.00
2023-05-22T05:24:13.038Z,703.00
2023-05-22T05:25:13.054Z,699.00
2023-05-22T05:26:13.067Z,700.00
2023-05-22T05:27:12.033Z,699.00
2023-05-22T05:28:12.054Z,697.00
2023-05-22T05:29:13.002Z,694.00
2023-05-22T05:30:13.013Z,696.00
2023-05-22T05:31:13.558Z,698.00
2023-05-22T05:32:12.066Z,703.00
2023-05-22T05:33:13.022Z,704.00
2023-05-22T05:34:12.977Z,710.00
2023-05-22T05:35:12.967Z,724.00
2023-05-22T05:36:11.993Z,771.00
2023-05-22T05:37:12.958Z,774.00
2023-05-22T05:38:11.951Z,776.00
2023-05-22T05:39:12.948Z,771.00
2023-05-22T05:40:11.926Z,774.00
2023-05-22T05:41:12.967Z,776.00
2023-05-22T05:42:12.931Z,771.00
2023-05-22T05:43:12.922Z,778.00
2023-05-22T05:44:12.910Z,788.00
2023-05-22T05:48:12.972Z,858.00
2023-05-22T05:49:12.907Z,862.00
2023-05-22T05:50:12.878Z,877.00
2023-05-22T05:51:11.899Z,894.00
2023-05-22T05:52:12.894Z,902.00
2023-05-22T05:53:12.886Z,953.00
2023-05-22T05:54:11.886Z,972.00
2023-05-22T05:55:12.947Z,985.00
2023-05-22T05:56:12.961Z,992.00
2023-05-22T05:57:12.981Z,999.00
2023-05-22T05:58:13.081Z,1010.00
2023-05-22T05:59:13.103Z,1029.00
2023-05-22T06:00:12.158Z,1037.00
2023-05-22T06:01:13.233Z,1007.00
2023-05-22T06:02:12.288Z,998.00
2023-05-22T06:03:13.443Z,1007.00
2023-05-22T06:04:13.412Z,1012.00
2023-05-22T06:05:13.507Z,1022.00
2023-05-22T06:06:13.434Z,1035.00
2023-05-22T06:07:13.496Z,1029.00
2023-05-22T06:08:12.524Z,1026.00
2023-05-22T06:09:12.537Z,1031.00
2023-05-22T06:10:13.554Z,1037.00
2023-05-22T06:11:12.663Z,1054.00
2023-05-22T06:12:13.625Z,1055.00
2023-05-22T06:13:13.625Z,1119.00
2023-05-22T06:14:13.677Z,1115.00
2023-05-22T06:15:12.673Z,1101.00
2023-05-22T06:16:12.687Z,1086.00
2023-05-22T06:17:13.703Z,1081.00
2023-05-22T06:18:13.758Z,1126.00
2023-05-22T06:19:13.774Z,1114.00
2023-05-22T06:20:13.752Z,1110.00
2023-05-22T06:21:13.707Z,1206.00
2023-05-22T06:22:12.765Z,1203.00
2023-05-22T06:23:12.733Z,1080.00
2023-05-22T06:24:13.705Z,1147.00
2023-05-22T06:25:12.737Z,1133.00
2023-05-22T06:26:13.719Z,1125.00
2023-05-22T06:27:13.696Z,1120.00
2023-05-22T06:28:12.692Z,1105.00
2023-05-22T06:29:13.707Z,1077.00
2023-05-22T06:30:12.690Z,1070.00
2023-05-22T06:31:12.691Z,1164.00
2023-05-22T06:32:13.766Z,1150.00
2023-05-22T06:33:12.827Z,1158.00
2023-05-22T06:34:12.755Z,1166.00
2023-05-22T06:35:13.757Z,1170.00
2023-05-22T06:36:13.816Z,1135.00
2023-05-22T06:37:12.807Z,1174.00
2023-05-22T06:38:12.842Z,1180.00
2023-05-22T06:39:13.867Z,1284.00
2023-05-22T06:40:13.892Z,1298.00
2023-05-22T06:41:12.952Z,1284.00
2023-05-22T06:42:13.995Z,1223.00
2023-05-22T06:43:13.058Z,1295.00
2023-05-22T06:44:14.094Z,1298.00
2023-05-22T06:45:13.189Z,1216.00
2023-05-22T06:46:13.322Z,1244.00
2023-05-22T06:47:13.296Z,1270.00
2023-05-22T06:48:13.372Z,1339.00
2023-05-22T06:49:14.437Z,1422.00
2023-05-22T06:50:13.453Z,1307.00
2023-05-22T06:51:14.526Z,1310.00
2023-05-22T06:52:13.599Z,1366.00
2023-05-22T06:53:14.658Z,1492.00
2023-05-22T06:54:14.686Z,1693.00
2023-05-22T06:55:14.793Z,1592.00
2023-05-22T06:56:13.817Z,1418.00
2023-05-22T06:57:15.327Z,1389.00
2023-05-22T06:58:13.935Z,1389.00
2023-05-22T06:59:15.016Z,1449.00
2023-05-22T07:00:15.048Z,1591.00
2023-05-22T07:01:15.148Z,1860.00
2023-05-22T07:02:14.178Z,1998.00
2023-05-22T07:03:14.294Z,1995.00
2023-05-22T07:04:14.270Z,1985.00
2023-05-22T07:05:15.311Z,1969.00
2023-05-22T07:06:15.421Z,1910.00
2023-05-22T07:07:15.411Z,1896.00
2023-05-22T07:08:15.684Z,1897.00
2023-05-22T07:09:14.489Z,1901.00
2023-05-22T07:10:15.539Z,1910.00
2023-05-22T07:11:15.558Z,1916.00
2023-05-22T07:12:15.609Z,1872.00
2023-05-22T07:13:15.622Z,1876.00
2023-05-22T07:14:15.700Z,1987.00
2023-05-22T07:15:14.868Z,1965.00
2023-05-22T07:16:15.719Z,1923.00
2023-05-22T07:17:15.708Z,1913.00
2023-05-22T07:18:15.719Z,1940.00
2023-05-22T07:19:15.823Z,1937.00
2023-05-22T07:20:15.778Z,1939.00
2023-05-22T07:21:15.781Z,1949.00
2023-05-22T07:22:15.793Z,1943.00
2023-05-22T07:23:15.755Z,1939.00
2023-05-22T07:24:15.798Z,1924.00
2023-05-22T07:25:14.780Z,1945.00
2023-05-22T07:26:15.797Z,1953.00
2023-05-22T07:27:15.822Z,1950.00
2023-05-22T07:28:15.777Z,1943.00
2023-05-22T07:29:15.764Z,1938.00
2023-05-22T07:30:14.774Z,1946.00
2023-05-22T07:31:15.819Z,1952.00
2023-05-22T07:32:14.754Z,1957.00
2023-05-22T07:33:15.818Z,1969.00
2023-05-22T07:34:15.754Z,1986.00
2023-05-22T07:35:15.766Z,2037.00
2023-05-22T07:36:15.776Z,2037.00
2023-05-22T07:37:15.808Z,2027.00
2023-05-22T07:38:14.780Z,2027.00
2023-05-22T07:39:14.794Z,2030.00
2023-05-22T07:40:15.905Z,2065.00
2023-05-22T07:41:15.814Z,2083.00
2023-05-22T07:42:15.800Z,2106.00
2023-05-22T07:43:15.791Z,2126.00
2023-05-22T07:44:15.778Z,2117.00
2023-05-22T07:45:15.790Z,2128.00
2023-05-22T07:46:15.828Z,2185.00
2023-05-22T07:47:15.801Z,2186.00
2023-05-22T07:48:15.837Z,2183.00
2023-05-22T07:49:15.825Z,1399.00
2023-05-22T07:50:14.800Z,1334.00
2023-05-22T07:51:15.795Z,1351.00
2023-05-22T07:52:15.848Z,1353.00
2023-05-22T07:53:15.868Z,1362.00
2023-05-22T07:54:15.920Z,1376.00
2023-05-22T07:55:15.935Z,1438.00
2023-05-22T07:56:16.074Z,1469.00
2023-05-22T07:57:15.918Z,1497.00
2023-05-22T07:58:15.948Z,1549.00
2023-05-22T07:59:14.923Z,1559.00
2023-05-22T08:00:14.959Z,1574.00
2023-05-22T08:01:15.930Z,1598.00
2023-05-22T08:02:15.985Z,1623.00
2023-05-22T08:03:17.344Z,1639.00
2023-05-22T08:04:16.283Z,1660.00
2023-05-22T08:05:14.986Z,1682.00
2023-05-22T08:06:15.942Z,1700.00
2023-05-22T08:07:15.909Z,1723.00
2023-05-22T08:08:14.903Z,1734.00
2023-05-22T08:09:14.885Z,1754.00
2023-05-22T08:10:14.891Z,1758.00
2023-05-22T08:11:15.888Z,1758.00
2023-05-22T08:12:15.920Z,1758.00
2023-05-22T08:13:15.876Z,1773.00
2023-05-22T08:14:14.883Z,1793.00
2023-05-22T08:15:15.864Z,1814.00
2023-05-22T08:16:14.861Z,1816.00
2023-05-22T08:17:15.873Z,1811.00
2023-05-22T08:18:14.893Z,1802.00
2023-05-22T08:19:15.969Z,1791.00
2023-05-22T08:20:14.883Z,1749.00
2023-05-22T08:21:14.840Z,1739.00
2023-05-22T08:22:15.906Z,1736.00
2023-05-22T08:23:15.961Z,1725.00
2023-05-22T08:24:14.974Z,1719.00
2023-05-22T08:25:16.062Z,1713.00
2023-05-22T08:26:16.098Z,1688.00
2023-05-22T08:27:15.148Z,1685.00
2023-05-22T08:28:16.242Z,1678.00
2023-05-22T08:29:16.278Z,1671.00
2023-05-22T08:30:16.306Z,1664.00
2023-05-22T08:31:16.410Z,1636.00
2023-05-22T08:32:15.428Z,1633.00
2023-05-22T08:33:16.505Z,1619.00
2023-05-22T08:34:16.491Z,1609.00
2023-05-22T08:35:16.554Z,1606.00
2023-05-22T08:36:16.574Z,1603.00
2023-05-22T08:37:16.645Z,1600.00
2023-05-22T08:38:16.706Z,1597.00
2023-05-22T08:39:16.721Z,1597.00
2023-05-22T08:40:15.793Z,1524.00
2023-05-22T08:41:15.799Z,1519.00
2023-05-22T08:42:16.855Z,1520.00
2023-05-22T08:43:15.945Z,1523.00
2023-05-22T08:44:16.950Z,1526.00
2023-05-22T08:45:16.981Z,1539.00
2023-05-22T08:46:17.068Z,1556.00
2023-05-22T08:47:16.106Z,1289.00
2023-05-22T08:48:17.166Z,1218.00
2023-05-22T08:49:17.146Z,1309.00
2023-05-22T08:50:17.187Z,1320.00
2023-05-22T08:51:17.227Z,1308.00
2023-05-22T08:52:17.304Z,1300.00
2023-05-22T08:53:17.316Z,1236.00
2023-05-22T08:54:16.359Z,1191.00
2023-05-22T08:55:17.451Z,1163.00
2023-05-22T08:56:17.461Z,1063.00
2023-05-22T08:57:17.861Z,1061.00
2023-05-22T08:58:16.508Z,1066.00
2023-05-22T08:59:17.552Z,1067.00
2023-05-22T09:00:17.634Z,1070.00
2023-05-22T09:01:16.633Z,1075.00
2023-05-22T09:02:17.596Z,1087.00
2023-05-22T09:03:16.744Z,1100.00
2023-05-22T09:04:17.647Z,1102.00
2023-05-22T09:05:17.670Z,1111.00
2023-05-22T09:06:17.698Z,1133.00
2023-05-22T09:07:17.710Z,1143.00
2023-05-22T09:08:20.771Z,1150.00
2023-05-22T09:09:17.729Z,1183.00
2023-05-22T09:10:17.750Z,1210.00
2023-05-22T09:11:17.733Z,1239.00
2023-05-22T09:12:16.723Z,1253.00
2023-05-22T09:13:17.710Z,1257.00
2023-05-22T09:14:16.705Z,1266.00
2023-05-22T09:15:17.679Z,1277.00
2023-05-22T09:16:17.978Z,1298.00
2023-05-22T09:17:17.723Z,1315.00
2023-05-22T09:18:17.668Z,1333.00
2023-05-22T09:19:17.696Z,1344.00
2023-05-22T09:20:17.654Z,1359.00
2023-05-22T09:21:28.802Z,1373.00
2023-05-22T09:22:17.636Z,1398.00
2023-05-22T09:23:17.658Z,1439.00
2023-05-22T09:24:17.619Z,1448.00
2023-05-22T09:25:17.612Z,1451.00
2023-05-22T09:26:17.633Z,1450.00
2023-05-22T09:27:17.637Z,1457.00
2023-05-22T09:28:17.626Z,1465.00
2023-05-22T09:29:17.585Z,1471.00
2023-05-22T09:30:17.598Z,1482.00
2023-05-22T09:31:17.615Z,1483.00
2023-05-22T09:32:16.679Z,1488.00
2023-05-22T09:33:17.575Z,1492.00
2023-05-22T09:34:17.579Z,1495.00
2023-05-22T09:35:17.553Z,1499.00
2023-05-22T09:36:17.556Z,1509.00
2023-05-22T09:37:16.545Z,1517.00
2023-05-22T09:38:17.541Z,1530.00
2023-05-22T09:39:17.528Z,1532.00
2023-05-22T09:40:17.520Z,1538.00
2023-05-22T09:41:16.504Z,1542.00
2023-05-22T09:42:17.545Z,1547.00
2023-05-22T09:43:16.513Z,1555.00
2023-05-22T09:44:17.496Z,1556.00
2023-05-22T09:45:17.474Z,1557.00
2023-05-22T09:46:16.561Z,1561.00
2023-05-22T09:47:16.973Z,1531.00
2023-05-22T09:48:17.570Z,1324.00
2023-05-22T09:49:17.837Z,1181.00
2023-05-22T09:50:17.450Z,1079.00
2023-05-22T09:51:17.435Z,1186.00
2023-05-22T09:52:17.912Z,1171.00
2023-05-22T09:53:16.423Z,1151.00
2023-05-22T09:54:18.416Z,1130.00
2023-05-22T09:55:16.508Z,1124.00
2023-05-22T09:56:23.945Z,1116.00
2023-05-22T09:57:17.452Z,1104.00
2023-05-22T09:58:17.413Z,1103.00
2023-05-22T09:59:16.406Z,1104.00
2023-05-22T10:00:17.376Z,1110.00
2023-05-22T10:01:17.434Z,1119.00
2023-05-22T10:02:17.476Z,1130.00
2023-05-22T10:03:17.360Z,1140.00
2023-05-22T10:04:16.445Z,1149.00
2023-05-22T10:05:17.359Z,1160.00
2023-05-22T10:06:17.327Z,1174.00
2023-05-22T10:07:16.343Z,1193.00
2023-05-22T10:08:16.330Z,1203.00
2023-05-22T10:09:18.214Z,1219.00
2023-05-22T10:10:16.301Z,1240.00
2023-05-22T10:11:17.337Z,1252.00
2023-05-22T10:12:16.294Z,1265.00
2023-05-22T10:13:17.281Z,1284.00
2023-05-22T10:14:17.295Z,1294.00
2023-05-22T10:15:17.257Z,1304.00
2023-05-22T10:16:17.327Z,1318.00
2023-05-22T10:17:16.252Z,1331.00
2023-05-22T10:18:16.238Z,1339.00
2023-05-22T10:19:16.266Z,1342.00
2023-05-22T10:20:16.400Z,1349.00
2023-05-22T10:21:16.226Z,1363.00
2023-05-22T10:22:17.205Z,1371.00
2023-05-22T10:23:16.265Z,1381.00
2023-05-22T10:24:16.215Z,1396.00
2023-05-22T10:25:16.237Z,1406.00
2023-05-22T10:26:17.219Z,1419.00
2023-05-22T10:27:16.183Z,1419.00
2023-05-22T10:28:17.188Z,1424.00
2023-05-22T10:29:17.182Z,1428.00
2023-05-22T10:30:17.175Z,1438.00
2023-05-22T10:31:17.154Z,1448.00
2023-05-22T10:32:17.195Z,1454.00
2023-05-22T10:33:17.254Z,1459.00
2023-05-22T10:34:17.235Z,1464.00
2023-05-22T10:35:17.313Z,1467.00
2023-05-22T10:36:17.485Z,1475.00
2023-05-22T10:37:19.082Z,1486.00
2023-05-22T10:38:16.409Z,1489.00
2023-05-22T10:39:17.477Z,1495.00
2023-05-22T10:40:17.529Z,1502.00
2023-05-22T10:41:17.626Z,1507.00
2023-05-22T10:42:16.668Z,1498.00
2023-05-22T10:43:18.448Z,1324.00
2023-05-22T10:44:17.766Z,1418.00
2023-05-22T10:45:17.840Z,1147.00
2023-05-22T10:46:17.882Z,1048.00
2023-05-22T10:47:16.832Z,965.00
2023-05-22T10:48:16.951Z,1056.00
2023-05-22T10:49:16.859Z,1070.00
2023-05-22T10:50:17.858Z,1078.00
2023-05-22T10:51:17.899Z,1083.00
2023-05-22T10:52:18.088Z,1078.00
2023-05-22T10:53:17.016Z,1075.00
2023-05-22T10:54:17.094Z,1081.00
2023-05-22T10:55:17.134Z,1084.00
2023-05-22T10:56:17.209Z,1091.00
2023-05-22T10:57:18.244Z,1077.00
2023-05-22T10:58:17.322Z,1056.00
2023-05-22T10:59:17.353Z,1061.00
2023-05-22T11:00:18.428Z,1059.00
2023-05-22T11:01:18.513Z,1064.00
2023-05-22T11:02:18.596Z,1044.00
2023-05-22T11:03:18.948Z,1028.00
2023-05-22T11:04:18.673Z,995.00
2023-05-22T11:05:17.708Z,909.00
2023-05-22T11:06:17.709Z,939.00
2023-05-22T11:07:18.769Z,941.00
2023-05-22T11:08:19.571Z,943.00
2023-05-22T11:09:17.869Z,948.00
2023-05-22T11:10:18.898Z,936.00
2023-05-22T11:11:17.942Z,900.00
2023-05-22T11:12:18.989Z,882.00
2023-05-22T11:13:18.050Z,876.00
2023-05-22T11:14:19.116Z,885.00
2023-05-22T11:15:19.133Z,917.00
2023-05-22T11:16:18.186Z,942.00
2023-05-22T11:17:18.275Z,962.00
2023-05-22T11:18:19.300Z,1001.00
2023-05-22T11:20:18.468Z,1017.00
2023-05-22T11:21:19.328Z,1023.00
2023-05-22T11:22:18.317Z,1037.00
2023-05-22T11:23:18.314Z,1049.00
2023-05-22T11:24:19.345Z,1052.00
2023-05-22T11:25:18.308Z,1056.00
2023-05-22T11:26:19.277Z,1062.00
2023-05-22T11:27:19.272Z,1063.00
2023-05-22T11:28:19.266Z,1064.00
2023-05-22T11:29:19.277Z,1064.00
2023-05-22T11:30:19.283Z,1070.00
2023-05-22T11:31:18.272Z,1080.00
2023-05-22T11:32:18.259Z,1082.00
2023-05-22T11:33:19.266Z,1076.00
2023-05-22T11:34:19.251Z,1082.00
2023-05-22T11:35:18.220Z,1079.00
2023-05-22T11:36:19.220Z,1047.00
2023-05-22T11:37:18.197Z,1147.00
2023-05-22T11:38:18.478Z,1125.00
2023-05-22T11:39:19.214Z,1136.00
2023-05-22T11:40:19.353Z,1129.00
2023-05-22T11:41:19.172Z,1021.00
2023-05-22T11:42:18.168Z,1032.00
2023-05-22T11:43:18.173Z,1048.00
2023-05-22T11:44:19.177Z,1120.00
2023-05-22T11:45:18.155Z,1133.00
2023-05-22T11:46:19.210Z,1126.00
2023-05-22T11:47:18.334Z,1129.00
2023-05-22T11:48:19.300Z,1117.00
2023-05-22T11:49:19.344Z,1103.00
2023-05-22T11:50:33.572Z,1109.00
2023-05-22T11:51:19.395Z,1125.00
2023-05-22T11:52:19.368Z,1131.00
2023-05-22T11:53:19.356Z,1148.00
2023-05-22T11:54:18.344Z,1170.00
2023-05-22T11:55:19.355Z,1189.00
2023-05-22T11:56:19.460Z,1198.00
2023-05-22T11:57:19.368Z,1202.00
2023-05-22T11:58:19.348Z,1206.00
2023-05-22T11:59:19.331Z,1210.00
2023-05-22T12:00:19.336Z,1210.00
2023-05-22T12:01:18.297Z,1209.00
2023-05-22T12:02:19.312Z,1208.00
2023-05-22T12:03:19.369Z,1207.00
2023-05-22T12:04:18.337Z,1204.00
2023-05-22T12:05:19.287Z,1208.00
2023-05-22T12:06:18.335Z,1211.00
2023-05-22T12:07:18.292Z,1211.00
2023-05-22T12:08:19.252Z,1212.00
2023-05-22T12:09:19.232Z,1213.00
2023-05-22T12:10:18.239Z,1210.00
2023-05-22T12:11:19.232Z,1210.00
2023-05-22T12:12:20.993Z,1208.00
2023-05-22T12:13:18.233Z,1205.00
2023-05-22T12:14:19.201Z,1204.00
2023-05-22T12:15:19.202Z,1205.00
2023-05-22T12:16:18.262Z,1204.00
2023-05-22T12:17:18.185Z,1202.00
2023-05-22T12:18:19.176Z,1200.00
2023-05-22T12:19:18.269Z,1198.00
2023-05-22T12:20:19.167Z,1198.00
2023-05-22T12:21:18.184Z,1196.00